sensor_id;sensor_type;location;lat;lon;timestamp;temperature;humidity
12504;DHT22;6316;48.118;-1.690;2022-08-01T00:00:38;21.90;96.60
12504;DHT22;6316;48.118;-1.690;2022-08-01T00:03:04;21.90;96.60
12504;DHT22;6316;48.118;-1.690;2022-08-01T00:05:30;21.90;96.60
12504;DHT22;6316;48.118;-1.690;2022-08-01T00:07:56;21.90;96.60
12504;DHT22;6316;48.118;-1.690;2022-08-01T00:10:22;21.90;96.60
12504;DHT22;6316;48.118;-1.690;2022-08-01T00:12:47;21.90;96.60
12504;DHT22;6316;48.118;-1.690;2022-08-01T00:15:16;21.90;96.60
12504;DHT22;6316;48.118;-1.690;2022-08-01T00:17:42;22.00;96.60
12504;DHT22;6316;48.118;-1.690;2022-08-01T00:20:11;22.00;96.60
12504;DHT22;6316;48.118;-1.690;2022-08-01T00:22:37;22.00;96.60
12504;DHT22;6316;48.118;-1.690;2022-08-01T00:25:04;22.00;96.70
12504;DHT22;6316;48.118;-1.690;2022-08-01T00:27:30;21.90;96.70
12504;DHT22;6316;48.118;-1.690;2022-08-01T00:29:56;21.90;96.70
12504;DHT22;6316;48.118;-1.690;2022-08-01T00:32:22;21.90;96.70
12504;DHT22;6316;48.118;-1.690;2022-08-01T00:34:48;21.90;96.70
12504;DHT22;6316;48.118;-1.690;2022-08-01T00:37:13;21.90;96.80
12504;DHT22;6316;48.118;-1.690;2022-08-01T00:39:39;21.90;96.80
12504;DHT22;6316;48.118;-1.690;2022-08-01T00:42:09;21.90;96.80
12504;DHT22;6316;48.118;-1.690;2022-08-01T00:44:35;21.90;96.80
12504;DHT22;6316;48.118;-1.690;2022-08-01T00:47:01;21.90;96.80
12504;DHT22;6316;48.118;-1.690;2022-08-01T00:49:27;21.90;96.80
12504;DHT22;6316;48.118;-1.690;2022-08-01T00:51:54;21.90;96.80
12504;DHT22;6316;48.118;-1.690;2022-08-01T00:54:19;21.90;96.80
12504;DHT22;6316;48.118;-1.690;2022-08-01T00:56:45;22.00;96.80
12504;DHT22;6316;48.118;-1.690;2022-08-01T00:59:12;22.00;96.80
12504;DHT22;6316;48.118;-1.690;2022-08-01T01:01:38;22.00;96.80
12504;DHT22;6316;48.118;-1.690;2022-08-01T01:04:03;22.00;96.80
12504;DHT22;6316;48.118;-1.690;2022-08-01T01:09:42;21.90;96.90
12504;DHT22;6316;48.118;-1.690;2022-08-01T01:12:22;21.90;96.90
12504;DHT22;6316;48.118;-1.690;2022-08-01T01:15:08;21.80;96.90
12504;DHT22;6316;48.118;-1.690;2022-08-01T01:17:48;21.80;97.00
12504;DHT22;6316;48.118;-1.690;2022-08-01T01:20:15;21.80;97.00
12504;DHT22;6316;48.118;-1.690;2022-08-01T01:28:16;21.80;97.00
12504;DHT22;6316;48.118;-1.690;2022-08-01T01:30:50;21.80;97.00
12504;DHT22;6316;48.118;-1.690;2022-08-01T01:33:19;21.80;97.10
12504;DHT22;6316;48.118;-1.690;2022-08-01T01:35:53;21.80;97.10
12504;DHT22;6316;48.118;-1.690;2022-08-01T01:38:24;21.80;97.10
12504;DHT22;6316;48.118;-1.690;2022-08-01T01:40:52;21.80;97.10
12504;DHT22;6316;48.118;-1.690;2022-08-01T01:43:20;21.80;97.10
12504;DHT22;6316;48.118;-1.690;2022-08-01T01:45:49;21.80;97.20
12504;DHT22;6316;48.118;-1.690;2022-08-01T01:48:18;21.70;97.10
12504;DHT22;6316;48.118;-1.690;2022-08-01T01:50:46;21.70;97.20
12504;DHT22;6316;48.118;-1.690;2022-08-01T01:53:14;21.70;97.20
12504;DHT22;6316;48.118;-1.690;2022-08-01T01:55:43;21.70;97.20
12504;DHT22;6316;48.118;-1.690;2022-08-01T01:58:12;21.70;97.30
12504;DHT22;6316;48.118;-1.690;2022-08-01T02:00:40;21.70;97.30
12504;DHT22;6316;48.118;-1.690;2022-08-01T02:03:10;21.70;97.30
12504;DHT22;6316;48.118;-1.690;2022-08-01T02:05:37;21.60;97.30
12504;DHT22;6316;48.118;-1.690;2022-08-01T02:08:04;21.60;97.40
12504;DHT22;6316;48.118;-1.690;2022-08-01T02:10:32;21.60;97.40
12504;DHT22;6316;48.118;-1.690;2022-08-01T02:13:02;21.60;97.40
12504;DHT22;6316;48.118;-1.690;2022-08-01T02:15:30;21.60;97.40
12504;DHT22;6316;48.118;-1.690;2022-08-01T02:17:57;21.60;97.40
12504;DHT22;6316;48.118;-1.690;2022-08-01T02:20:24;21.60;97.50
12504;DHT22;6316;48.118;-1.690;2022-08-01T02:23:00;21.60;97.80
12504;DHT22;6316;48.118;-1.690;2022-08-01T02:25:40;21.60;97.50
12504;DHT22;6316;48.118;-1.690;2022-08-01T02:28:29;21.60;97.50
12504;DHT22;6316;48.118;-1.690;2022-08-01T02:31:00;21.60;97.50
12504;DHT22;6316;48.118;-1.690;2022-08-01T02:33:39;21.60;97.50
12504;DHT22;6316;48.118;-1.690;2022-08-01T02:36:07;21.60;97.50
12504;DHT22;6316;48.118;-1.690;2022-08-01T02:38:39;21.60;97.50
12504;DHT22;6316;48.118;-1.690;2022-08-01T02:41:09;21.60;97.50
12504;DHT22;6316;48.118;-1.690;2022-08-01T02:43:37;21.60;97.50
12504;DHT22;6316;48.118;-1.690;2022-08-01T02:46:06;21.60;97.50
12504;DHT22;6316;48.118;-1.690;2022-08-01T02:48:35;21.60;97.50
12504;DHT22;6316;48.118;-1.690;2022-08-01T02:51:02;21.60;97.50
12504;DHT22;6316;48.118;-1.690;2022-08-01T02:53:32;21.60;97.50
12504;DHT22;6316;48.118;-1.690;2022-08-01T02:56:03;21.60;97.50
12504;DHT22;6316;48.118;-1.690;2022-08-01T02:58:30;21.60;97.60
12504;DHT22;6316;48.118;-1.690;2022-08-01T03:00:57;21.60;97.60
12504;DHT22;6316;48.118;-1.690;2022-08-01T03:03:24;21.60;97.60
12504;DHT22;6316;48.118;-1.690;2022-08-01T03:05:50;21.60;97.60
12504;DHT22;6316;48.118;-1.690;2022-08-01T03:08:16;21.60;97.50
12504;DHT22;6316;48.118;-1.690;2022-08-01T03:10:45;21.60;97.60
12504;DHT22;6316;48.118;-1.690;2022-08-01T03:13:13;21.60;97.60
12504;DHT22;6316;48.118;-1.690;2022-08-01T03:15:41;21.60;97.50
12504;DHT22;6316;48.118;-1.690;2022-08-01T03:18:09;21.60;97.60
12504;DHT22;6316;48.118;-1.690;2022-08-01T03:20:36;21.60;97.60
12504;DHT22;6316;48.118;-1.690;2022-08-01T03:23:05;21.60;97.60
12504;DHT22;6316;48.118;-1.690;2022-08-01T03:25:33;21.60;97.60
12504;DHT22;6316;48.118;-1.690;2022-08-01T03:28:03;21.60;97.60
12504;DHT22;6316;48.118;-1.690;2022-08-01T03:30:30;21.50;97.60
12504;DHT22;6316;48.118;-1.690;2022-08-01T03:32:57;21.50;97.60
12504;DHT22;6316;48.118;-1.690;2022-08-01T03:35:27;21.50;97.60
12504;DHT22;6316;48.118;-1.690;2022-08-01T03:37:55;21.50;97.60
12504;DHT22;6316;48.118;-1.690;2022-08-01T03:40:26;21.40;97.80
12504;DHT22;6316;48.118;-1.690;2022-08-01T03:43:07;21.40;97.60
12504;DHT22;6316;48.118;-1.690;2022-08-01T03:45:37;21.40;97.70
12504;DHT22;6316;48.118;-1.690;2022-08-01T03:48:09;21.40;97.70
12504;DHT22;6316;48.118;-1.690;2022-08-01T03:50:41;21.30;97.70
12504;DHT22;6316;48.118;-1.690;2022-08-01T03:53:08;21.30;98.00
12504;DHT22;6316;48.118;-1.690;2022-08-01T03:55:36;21.30;97.70
12504;DHT22;6316;48.118;-1.690;2022-08-01T03:58:04;21.30;97.70
12504;DHT22;6316;48.118;-1.690;2022-08-01T04:00:30;21.20;97.70
12504;DHT22;6316;48.118;-1.690;2022-08-01T04:02:56;21.30;97.70
12504;DHT22;6316;48.118;-1.690;2022-08-01T04:05:23;21.20;97.70
12504;DHT22;6316;48.118;-1.690;2022-08-01T04:07:50;21.20;97.70
12504;DHT22;6316;48.118;-1.690;2022-08-01T04:10:23;21.20;97.70
12504;DHT22;6316;48.118;-1.690;2022-08-01T04:12:49;21.20;97.80
12504;DHT22;6316;48.118;-1.690;2022-08-01T04:15:15;21.20;97.80
12504;DHT22;6316;48.118;-1.690;2022-08-01T04:17:40;21.20;97.80
12504;DHT22;6316;48.118;-1.690;2022-08-01T04:20:06;21.20;97.80
12504;DHT22;6316;48.118;-1.690;2022-08-01T04:22:33;21.10;97.80
12504;DHT22;6316;48.118;-1.690;2022-08-01T04:25:00;21.10;97.80
12504;DHT22;6316;48.118;-1.690;2022-08-01T04:27:36;21.10;97.80
12504;DHT22;6316;48.118;-1.690;2022-08-01T04:30:03;21.10;97.80
12504;DHT22;6316;48.118;-1.690;2022-08-01T04:32:33;21.10;97.80
12504;DHT22;6316;48.118;-1.690;2022-08-01T04:35:04;21.10;97.80
12504;DHT22;6316;48.118;-1.690;2022-08-01T04:37:30;21.10;97.80
12504;DHT22;6316;48.118;-1.690;2022-08-01T04:39:57;21.10;97.80
12504;DHT22;6316;48.118;-1.690;2022-08-01T04:42:23;21.10;97.80
12504;DHT22;6316;48.118;-1.690;2022-08-01T04:44:49;21.10;97.80
12504;DHT22;6316;48.118;-1.690;2022-08-01T04:47:15;21.10;97.80
12504;DHT22;6316;48.118;-1.690;2022-08-01T04:49:41;21.00;97.80
12504;DHT22;6316;48.118;-1.690;2022-08-01T04:52:08;21.00;97.80
12504;DHT22;6316;48.118;-1.690;2022-08-01T04:54:35;21.00;97.80
12504;DHT22;6316;48.118;-1.690;2022-08-01T04:57:06;20.90;97.80
12504;DHT22;6316;48.118;-1.690;2022-08-01T04:59:35;20.90;97.80
12504;DHT22;6316;48.118;-1.690;2022-08-01T05:02:09;20.80;97.80
12504;DHT22;6316;48.118;-1.690;2022-08-01T05:04:36;20.80;97.90
12504;DHT22;6316;48.118;-1.690;2022-08-01T05:07:02;20.80;97.90
12504;DHT22;6316;48.118;-1.690;2022-08-01T05:09:28;20.70;97.90
12504;DHT22;6316;48.118;-1.690;2022-08-01T05:11:53;20.70;98.00
12504;DHT22;6316;48.118;-1.690;2022-08-01T05:14:19;20.70;98.00
12504;DHT22;6316;48.118;-1.690;2022-08-01T05:16:46;20.70;98.00
12504;DHT22;6316;48.118;-1.690;2022-08-01T05:19:12;20.70;98.00
12504;DHT22;6316;48.118;-1.690;2022-08-01T05:21:38;20.80;98.00
12504;DHT22;6316;48.118;-1.690;2022-08-01T05:24:06;20.80;98.00
12504;DHT22;6316;48.118;-1.690;2022-08-01T05:26:32;20.80;98.00
12504;DHT22;6316;48.118;-1.690;2022-08-01T05:28:59;20.80;98.00
12504;DHT22;6316;48.118;-1.690;2022-08-01T05:31:24;20.80;98.00
12504;DHT22;6316;48.118;-1.690;2022-08-01T05:33:50;20.80;98.00
12504;DHT22;6316;48.118;-1.690;2022-08-01T05:36:16;20.80;98.00
12504;DHT22;6316;48.118;-1.690;2022-08-01T05:38:41;20.80;98.00
12504;DHT22;6316;48.118;-1.690;2022-08-01T05:41:07;20.80;98.00
12504;DHT22;6316;48.118;-1.690;2022-08-01T05:43:33;20.80;98.00
12504;DHT22;6316;48.118;-1.690;2022-08-01T05:45:58;20.80;98.00
12504;DHT22;6316;48.118;-1.690;2022-08-01T05:48:24;20.80;98.00
12504;DHT22;6316;48.118;-1.690;2022-08-01T05:50:50;20.80;98.00
12504;DHT22;6316;48.118;-1.690;2022-08-01T05:53:16;20.80;98.00
12504;DHT22;6316;48.118;-1.690;2022-08-01T05:55:41;20.80;98.00
12504;DHT22;6316;48.118;-1.690;2022-08-01T05:58:08;20.90;98.10
12504;DHT22;6316;48.118;-1.690;2022-08-01T06:00:34;20.90;98.10
12504;DHT22;6316;48.118;-1.690;2022-08-01T06:02:59;21.00;98.10
12504;DHT22;6316;48.118;-1.690;2022-08-01T06:05:25;21.00;98.10
12504;DHT22;6316;48.118;-1.690;2022-08-01T06:07:50;21.00;98.10
12504;DHT22;6316;48.118;-1.690;2022-08-01T06:10:16;21.00;98.00
12504;DHT22;6316;48.118;-1.690;2022-08-01T06:12:42;21.00;98.00
12504;DHT22;6316;48.118;-1.690;2022-08-01T06:15:08;21.10;98.10
12504;DHT22;6316;48.118;-1.690;2022-08-01T06:17:34;21.10;98.00
12504;DHT22;6316;48.118;-1.690;2022-08-01T06:20:00;21.10;98.00
12504;DHT22;6316;48.118;-1.690;2022-08-01T06:22:26;21.10;98.00
12504;DHT22;6316;48.118;-1.690;2022-08-01T06:24:51;21.10;98.00
12504;DHT22;6316;48.118;-1.690;2022-08-01T06:27:17;21.10;98.00
12504;DHT22;6316;48.118;-1.690;2022-08-01T06:29:43;21.10;98.00
12504;DHT22;6316;48.118;-1.690;2022-08-01T06:32:09;21.10;98.00
12504;DHT22;6316;48.118;-1.690;2022-08-01T06:34:35;21.20;98.10
12504;DHT22;6316;48.118;-1.690;2022-08-01T06:37:01;21.20;98.00
12504;DHT22;6316;48.118;-1.690;2022-08-01T06:39:27;21.20;98.00
12504;DHT22;6316;48.118;-1.690;2022-08-01T06:41:52;21.20;98.00
12504;DHT22;6316;48.118;-1.690;2022-08-01T06:44:18;21.20;98.00
12504;DHT22;6316;48.118;-1.690;2022-08-01T06:46:44;21.20;98.00
12504;DHT22;6316;48.118;-1.690;2022-08-01T06:49:09;21.20;98.00
12504;DHT22;6316;48.118;-1.690;2022-08-01T06:51:35;21.20;98.10
12504;DHT22;6316;48.118;-1.690;2022-08-01T06:54:01;21.10;98.00
12504;DHT22;6316;48.118;-1.690;2022-08-01T06:56:26;21.20;98.10
12504;DHT22;6316;48.118;-1.690;2022-08-01T06:58:52;21.20;98.10
12504;DHT22;6316;48.118;-1.690;2022-08-01T07:01:18;21.20;98.10
12504;DHT22;6316;48.118;-1.690;2022-08-01T07:03:43;21.10;98.10
12504;DHT22;6316;48.118;-1.690;2022-08-01T07:06:09;21.10;98.10
12504;DHT22;6316;48.118;-1.690;2022-08-01T07:08:36;21.10;98.10
12504;DHT22;6316;48.118;-1.690;2022-08-01T07:11:01;21.10;98.20
12504;DHT22;6316;48.118;-1.690;2022-08-01T07:13:29;21.10;98.20
12504;DHT22;6316;48.118;-1.690;2022-08-01T07:15:56;21.20;98.20
12504;DHT22;6316;48.118;-1.690;2022-08-01T07:18:22;21.20;98.20
12504;DHT22;6316;48.118;-1.690;2022-08-01T07:20:49;21.30;98.20
12504;DHT22;6316;48.118;-1.690;2022-08-01T07:23:15;21.30;98.20
12504;DHT22;6316;48.118;-1.690;2022-08-01T07:25:40;21.40;98.20
12504;DHT22;6316;48.118;-1.690;2022-08-01T07:28:06;21.40;98.20
12504;DHT22;6316;48.118;-1.690;2022-08-01T07:30:32;21.40;98.10
12504;DHT22;6316;48.118;-1.690;2022-08-01T07:32:58;21.40;98.10
12504;DHT22;6316;48.118;-1.690;2022-08-01T07:35:23;21.50;98.10
12504;DHT22;6316;48.118;-1.690;2022-08-01T07:37:49;21.50;98.40
12504;DHT22;6316;48.118;-1.690;2022-08-01T07:40:15;21.50;98.00
12504;DHT22;6316;48.118;-1.690;2022-08-01T07:42:41;21.50;98.00
12504;DHT22;6316;48.118;-1.690;2022-08-01T07:45:09;21.50;98.00
12504;DHT22;6316;48.118;-1.690;2022-08-01T07:47:35;21.60;98.00
12504;DHT22;6316;48.118;-1.690;2022-08-01T07:50:03;21.60;98.00
12504;DHT22;6316;48.118;-1.690;2022-08-01T07:52:29;21.60;98.00
12504;DHT22;6316;48.118;-1.690;2022-08-01T07:54:56;21.70;98.00
12504;DHT22;6316;48.118;-1.690;2022-08-01T07:57:22;21.80;98.10
12504;DHT22;6316;48.118;-1.690;2022-08-01T07:59:48;21.90;98.00
12504;DHT22;6316;48.118;-1.690;2022-08-01T08:02:14;21.90;98.00
12504;DHT22;6316;48.118;-1.690;2022-08-01T08:04:40;21.90;97.90
12504;DHT22;6316;48.118;-1.690;2022-08-01T08:07:06;22.00;97.90
12504;DHT22;6316;48.118;-1.690;2022-08-01T08:09:31;21.90;97.90
12504;DHT22;6316;48.118;-1.690;2022-08-01T08:11:57;22.00;97.90
12504;DHT22;6316;48.118;-1.690;2022-08-01T08:14:23;22.00;97.90
12504;DHT22;6316;48.118;-1.690;2022-08-01T08:16:49;22.00;97.90
12504;DHT22;6316;48.118;-1.690;2022-08-01T08:19:15;22.10;97.90
12504;DHT22;6316;48.118;-1.690;2022-08-01T08:21:41;22.10;97.90
12504;DHT22;6316;48.118;-1.690;2022-08-01T08:24:08;22.10;97.90
12504;DHT22;6316;48.118;-1.690;2022-08-01T08:26:58;22.20;97.90
12504;DHT22;6316;48.118;-1.690;2022-08-01T08:29:25;22.30;97.90
12504;DHT22;6316;48.118;-1.690;2022-08-01T08:31:54;22.40;97.80
12504;DHT22;6316;48.118;-1.690;2022-08-01T08:34:20;22.50;97.80
12504;DHT22;6316;48.118;-1.690;2022-08-01T08:36:46;22.70;97.70
12504;DHT22;6316;48.118;-1.690;2022-08-01T08:39:11;22.80;97.60
12504;DHT22;6316;48.118;-1.690;2022-08-01T08:41:37;23.00;97.60
12504;DHT22;6316;48.118;-1.690;2022-08-01T08:44:05;23.10;97.50
12504;DHT22;6316;48.118;-1.690;2022-08-01T08:46:31;23.10;97.50
12504;DHT22;6316;48.118;-1.690;2022-08-01T08:49:02;23.20;97.50
12504;DHT22;6316;48.118;-1.690;2022-08-01T08:51:30;23.20;97.40
12504;DHT22;6316;48.118;-1.690;2022-08-01T08:53:59;23.30;97.40
12504;DHT22;6316;48.118;-1.690;2022-08-01T08:56:26;23.30;97.40
12504;DHT22;6316;48.118;-1.690;2022-08-01T08:58:55;23.30;97.30
12504;DHT22;6316;48.118;-1.690;2022-08-01T09:01:21;23.40;97.40
12504;DHT22;6316;48.118;-1.690;2022-08-01T09:03:47;23.50;97.30
12504;DHT22;6316;48.118;-1.690;2022-08-01T09:06:13;23.60;97.30
12504;DHT22;6316;48.118;-1.690;2022-08-01T09:08:39;23.90;97.20
12504;DHT22;6316;48.118;-1.690;2022-08-01T09:11:05;24.20;97.00
12504;DHT22;6316;48.118;-1.690;2022-08-01T09:13:31;24.50;96.90
12504;DHT22;6316;48.118;-1.690;2022-08-01T09:15:57;24.90;96.70
12504;DHT22;6316;48.118;-1.690;2022-08-01T09:18:38;25.20;96.50
12504;DHT22;6316;48.118;-1.690;2022-08-01T09:23:49;25.40;96.30
12504;DHT22;6316;48.118;-1.690;2022-08-01T09:26:18;25.40;96.20
12504;DHT22;6316;48.118;-1.690;2022-08-01T09:28:47;25.30;96.20
12504;DHT22;6316;48.118;-1.690;2022-08-01T09:31:16;25.30;96.20
12504;DHT22;6316;48.118;-1.690;2022-08-01T09:33:52;25.20;96.30
12504;DHT22;6316;48.118;-1.690;2022-08-01T09:36:19;25.30;96.30
12504;DHT22;6316;48.118;-1.690;2022-08-01T09:38:45;25.40;96.30
12504;DHT22;6316;48.118;-1.690;2022-08-01T09:41:11;25.40;96.30
12504;DHT22;6316;48.118;-1.690;2022-08-01T09:43:37;25.40;96.20
12504;DHT22;6316;48.118;-1.690;2022-08-01T09:46:10;25.30;96.20
12504;DHT22;6316;48.118;-1.690;2022-08-01T09:48:54;25.40;96.30
12504;DHT22;6316;48.118;-1.690;2022-08-01T09:51:31;25.40;96.20
12504;DHT22;6316;48.118;-1.690;2022-08-01T09:53:58;25.50;96.20
12504;DHT22;6316;48.118;-1.690;2022-08-01T09:56:24;25.50;96.20
12504;DHT22;6316;48.118;-1.690;2022-08-01T09:58:55;25.50;96.20
12504;DHT22;6316;48.118;-1.690;2022-08-01T10:01:21;25.40;96.10
12504;DHT22;6316;48.118;-1.690;2022-08-01T10:06:35;25.60;96.10
12504;DHT22;6316;48.118;-1.690;2022-08-01T10:09:02;25.80;96.00
12504;DHT22;6316;48.118;-1.690;2022-08-01T10:11:28;26.00;95.90
12504;DHT22;6316;48.118;-1.690;2022-08-01T10:13:56;26.10;95.80
12504;DHT22;6316;48.118;-1.690;2022-08-01T10:16:25;26.20;95.70
12504;DHT22;6316;48.118;-1.690;2022-08-01T10:18:52;26.20;95.60
12504;DHT22;6316;48.118;-1.690;2022-08-01T10:21:19;26.10;95.60
12504;DHT22;6316;48.118;-1.690;2022-08-01T10:23:45;26.10;95.60
12504;DHT22;6316;48.118;-1.690;2022-08-01T10:26:12;26.20;95.60
12504;DHT22;6316;48.118;-1.690;2022-08-01T10:28:39;26.10;95.60
12504;DHT22;6316;48.118;-1.690;2022-08-01T10:31:07;26.10;95.60
12504;DHT22;6316;48.118;-1.690;2022-08-01T10:33:33;26.00;95.60
12504;DHT22;6316;48.118;-1.690;2022-08-01T10:36:02;26.00;95.70
12504;DHT22;6316;48.118;-1.690;2022-08-01T10:38:28;26.10;95.70
12504;DHT22;6316;48.118;-1.690;2022-08-01T10:40:55;26.10;95.60
12504;DHT22;6316;48.118;-1.690;2022-08-01T10:43:22;26.20;95.60
12504;DHT22;6316;48.118;-1.690;2022-08-01T10:45:49;26.20;95.50
12504;DHT22;6316;48.118;-1.690;2022-08-01T10:48:20;26.10;95.50
12504;DHT22;6316;48.118;-1.690;2022-08-01T10:50:49;26.10;95.60
12504;DHT22;6316;48.118;-1.690;2022-08-01T10:53:27;26.10;95.50
12504;DHT22;6316;48.118;-1.690;2022-08-01T10:56:03;26.10;95.50
12504;DHT22;6316;48.118;-1.690;2022-08-01T10:58:37;26.10;95.50
12504;DHT22;6316;48.118;-1.690;2022-08-01T11:01:25;26.00;95.50
12504;DHT22;6316;48.118;-1.690;2022-08-01T11:09:03;26.10;95.50
12504;DHT22;6316;48.118;-1.690;2022-08-01T11:11:29;26.20;95.50
12504;DHT22;6316;48.118;-1.690;2022-08-01T11:16:28;26.50;95.30
12504;DHT22;6316;48.118;-1.690;2022-08-01T11:18:54;26.70;95.20
12504;DHT22;6316;48.118;-1.690;2022-08-01T11:21:20;26.90;95.10
12504;DHT22;6316;48.118;-1.690;2022-08-01T11:23:50;27.00;95.00
12504;DHT22;6316;48.118;-1.690;2022-08-01T11:26:20;27.10;94.90
12504;DHT22;6316;48.118;-1.690;2022-08-01T11:29:16;27.20;94.80
12504;DHT22;6316;48.118;-1.690;2022-08-01T11:31:42;27.30;94.80
12504;DHT22;6316;48.118;-1.690;2022-08-01T11:34:08;27.30;94.70
12504;DHT22;6316;48.118;-1.690;2022-08-01T11:36:34;27.40;94.70
12504;DHT22;6316;48.118;-1.690;2022-08-01T11:41:30;27.60;94.60
12504;DHT22;6316;48.118;-1.690;2022-08-01T11:44:16;27.70;94.50
12504;DHT22;6316;48.118;-1.690;2022-08-01T11:52:07;27.70;94.50
12504;DHT22;6316;48.118;-1.690;2022-08-01T11:54:43;27.70;94.40
12504;DHT22;6316;48.118;-1.690;2022-08-01T11:57:11;27.80;94.40
12504;DHT22;6316;48.118;-1.690;2022-08-01T11:59:42;27.90;94.40
12504;DHT22;6316;48.118;-1.690;2022-08-01T12:02:19;28.00;94.30
12504;DHT22;6316;48.118;-1.690;2022-08-01T12:04:47;28.00;94.10
12504;DHT22;6316;48.118;-1.690;2022-08-01T12:07:17;28.00;94.10
12504;DHT22;6316;48.118;-1.690;2022-08-01T12:09:43;27.90;94.10
12504;DHT22;6316;48.118;-1.690;2022-08-01T12:12:09;27.80;94.20
12504;DHT22;6316;48.118;-1.690;2022-08-01T12:14:35;27.60;94.10
12504;DHT22;6316;48.118;-1.690;2022-08-01T12:17:01;27.40;94.20
12504;DHT22;6316;48.118;-1.690;2022-08-01T12:19:27;27.40;94.30
12504;DHT22;6316;48.118;-1.690;2022-08-01T12:24:34;27.40;94.40
12504;DHT22;6316;48.118;-1.690;2022-08-01T12:26:59;27.50;94.30
12504;DHT22;6316;48.118;-1.690;2022-08-01T12:29:35;27.50;94.20
12504;DHT22;6316;48.118;-1.690;2022-08-01T12:32:03;27.50;94.20
12504;DHT22;6316;48.118;-1.690;2022-08-01T12:34:29;27.50;94.20
12504;DHT22;6316;48.118;-1.690;2022-08-01T12:36:59;27.60;94.20
12504;DHT22;6316;48.118;-1.690;2022-08-01T12:39:30;27.60;94.10
12504;DHT22;6316;48.118;-1.690;2022-08-01T12:41:56;27.60;94.10
12504;DHT22;6316;48.118;-1.690;2022-08-01T12:44:22;27.60;94.10
12504;DHT22;6316;48.118;-1.690;2022-08-01T12:46:48;27.50;94.00
12504;DHT22;6316;48.118;-1.690;2022-08-01T12:49:14;27.50;94.00
12504;DHT22;6316;48.118;-1.690;2022-08-01T12:51:40;27.40;94.00
12504;DHT22;6316;48.118;-1.690;2022-08-01T12:54:06;27.40;94.10
12504;DHT22;6316;48.118;-1.690;2022-08-01T12:56:35;27.30;94.00
12504;DHT22;6316;48.118;-1.690;2022-08-01T12:59:02;27.20;94.00
12504;DHT22;6316;48.118;-1.690;2022-08-01T13:01:45;27.20;94.00
12504;DHT22;6316;48.118;-1.690;2022-08-01T13:04:10;27.20;94.00
12504;DHT22;6316;48.118;-1.690;2022-08-01T13:06:36;27.20;94.00
12504;DHT22;6316;48.118;-1.690;2022-08-01T13:09:06;27.20;94.00
12504;DHT22;6316;48.118;-1.690;2022-08-01T13:11:32;27.20;94.00
12504;DHT22;6316;48.118;-1.690;2022-08-01T13:13:58;27.30;94.00
12504;DHT22;6316;48.118;-1.690;2022-08-01T13:16:25;27.30;93.90
12504;DHT22;6316;48.118;-1.690;2022-08-01T13:18:53;27.30;93.90
12504;DHT22;6316;48.118;-1.690;2022-08-01T13:24:10;27.30;93.80
12504;DHT22;6316;48.118;-1.690;2022-08-01T13:26:49;27.20;93.80
12504;DHT22;6316;48.118;-1.690;2022-08-01T13:29:19;27.10;93.80
12504;DHT22;6316;48.118;-1.690;2022-08-01T13:31:46;27.00;93.80
12504;DHT22;6316;48.118;-1.690;2022-08-01T13:34:12;27.00;93.80
12504;DHT22;6316;48.118;-1.690;2022-08-01T13:36:38;27.00;93.90
12504;DHT22;6316;48.118;-1.690;2022-08-01T13:39:05;26.90;93.90
12504;DHT22;6316;48.118;-1.690;2022-08-01T13:41:49;26.90;93.90
12504;DHT22;6316;48.118;-1.690;2022-08-01T13:44:15;26.80;93.90
12504;DHT22;6316;48.118;-1.690;2022-08-01T13:46:42;26.70;93.90
12504;DHT22;6316;48.118;-1.690;2022-08-01T13:49:09;26.70;93.90
12504;DHT22;6316;48.118;-1.690;2022-08-01T13:51:36;26.70;93.90
12504;DHT22;6316;48.118;-1.690;2022-08-01T13:54:02;26.70;93.90
12504;DHT22;6316;48.118;-1.690;2022-08-01T13:56:28;26.80;93.90
12504;DHT22;6316;48.118;-1.690;2022-08-01T13:58:56;26.90;93.90
12504;DHT22;6316;48.118;-1.690;2022-08-01T14:01:23;27.00;93.80
12504;DHT22;6316;48.118;-1.690;2022-08-01T14:03:49;27.10;93.70
12504;DHT22;6316;48.118;-1.690;2022-08-01T14:06:16;27.20;93.70
12504;DHT22;6316;48.118;-1.690;2022-08-01T14:08:43;27.20;93.60
12504;DHT22;6316;48.118;-1.690;2022-08-01T14:11:08;27.20;93.60
12504;DHT22;6316;48.118;-1.690;2022-08-01T14:13:34;27.10;93.60
12504;DHT22;6316;48.118;-1.690;2022-08-01T14:16:02;27.00;93.60
12504;DHT22;6316;48.118;-1.690;2022-08-01T14:18:28;27.00;93.60
12504;DHT22;6316;48.118;-1.690;2022-08-01T14:20:54;26.90;93.70
12504;DHT22;6316;48.118;-1.690;2022-08-01T14:23:19;26.80;93.70
12504;DHT22;6316;48.118;-1.690;2022-08-01T14:25:45;26.90;93.70
12504;DHT22;6316;48.118;-1.690;2022-08-01T14:28:10;26.90;93.70
12504;DHT22;6316;48.118;-1.690;2022-08-01T14:30:36;27.00;93.70
12504;DHT22;6316;48.118;-1.690;2022-08-01T14:33:02;27.00;93.60
12504;DHT22;6316;48.118;-1.690;2022-08-01T14:35:28;27.00;93.60
12504;DHT22;6316;48.118;-1.690;2022-08-01T14:37:54;27.00;93.60
12504;DHT22;6316;48.118;-1.690;2022-08-01T14:40:20;27.00;93.60
12504;DHT22;6316;48.118;-1.690;2022-08-01T14:42:45;27.00;93.60
12504;DHT22;6316;48.118;-1.690;2022-08-01T14:45:12;27.00;93.60
12504;DHT22;6316;48.118;-1.690;2022-08-01T14:47:40;27.00;93.60
12504;DHT22;6316;48.118;-1.690;2022-08-01T14:50:08;27.00;93.50
12504;DHT22;6316;48.118;-1.690;2022-08-01T14:52:35;27.10;93.50
12504;DHT22;6316;48.118;-1.690;2022-08-01T14:55:01;27.10;93.50
12504;DHT22;6316;48.118;-1.690;2022-08-01T14:57:27;27.20;93.50
12504;DHT22;6316;48.118;-1.690;2022-08-01T14:59:53;27.20;93.50
12504;DHT22;6316;48.118;-1.690;2022-08-01T15:02:19;27.20;93.40
12504;DHT22;6316;48.118;-1.690;2022-08-01T15:04:46;27.20;93.30
12504;DHT22;6316;48.118;-1.690;2022-08-01T15:07:12;27.20;93.30
12504;DHT22;6316;48.118;-1.690;2022-08-01T15:09:38;27.10;93.30
12504;DHT22;6316;48.118;-1.690;2022-08-01T15:12:04;27.10;93.30
12504;DHT22;6316;48.118;-1.690;2022-08-01T15:14:30;27.10;93.30
12504;DHT22;6316;48.118;-1.690;2022-08-01T15:19:49;27.10;93.30
12504;DHT22;6316;48.118;-1.690;2022-08-01T15:22:16;27.10;93.30
12504;DHT22;6316;48.118;-1.690;2022-08-01T15:24:42;27.10;93.30
12504;DHT22;6316;48.118;-1.690;2022-08-01T15:27:08;27.10;93.30
12504;DHT22;6316;48.118;-1.690;2022-08-01T15:29:35;27.20;93.30
12504;DHT22;6316;48.118;-1.690;2022-08-01T15:32:03;27.20;93.30
12504;DHT22;6316;48.118;-1.690;2022-08-01T15:34:29;27.30;93.30
12504;DHT22;6316;48.118;-1.690;2022-08-01T15:36:56;27.20;93.10
12504;DHT22;6316;48.118;-1.690;2022-08-01T15:39:22;27.20;93.50
12504;DHT22;6316;48.118;-1.690;2022-08-01T15:41:47;27.20;93.20
12504;DHT22;6316;48.118;-1.690;2022-08-01T15:44:13;27.20;93.10
12504;DHT22;6316;48.118;-1.690;2022-08-01T15:46:39;27.10;93.10
12504;DHT22;6316;48.118;-1.690;2022-08-01T15:49:05;27.20;93.10
12504;DHT22;6316;48.118;-1.690;2022-08-01T15:51:32;27.20;93.10
12504;DHT22;6316;48.118;-1.690;2022-08-01T15:53:58;27.20;93.10
12504;DHT22;6316;48.118;-1.690;2022-08-01T15:56:24;27.30;93.10
12504;DHT22;6316;48.118;-1.690;2022-08-01T15:58:50;27.20;93.10
12504;DHT22;6316;48.118;-1.690;2022-08-01T16:01:16;27.30;93.10
12504;DHT22;6316;48.118;-1.690;2022-08-01T16:03:41;27.30;93.10
12504;DHT22;6316;48.118;-1.690;2022-08-01T16:06:07;27.40;93.10
12504;DHT22;6316;48.118;-1.690;2022-08-01T16:08:33;27.40;93.00
12504;DHT22;6316;48.118;-1.690;2022-08-01T16:10:59;27.40;93.00